Flight Track Log - Related Links

Times and Time Zones

All times are in EDT time to prevent confusion due to time zone crossing. See the N97508 flight status page for this flight to view local times or setup timezone preferences in your user account.

Time Position Orientation Groundspeed Altitude Reporting Facility
EDT Latitude Longitude Course Direction KTS MPH feet Rate Location/Type
Thu 10:02:42 AM 38.4150 -81.7840 290° West 104 120 3,300  Level FlightAware ADS-B
Thu 10:03:10 AM 38.4190 -81.7990 289° West 102 117 3,500 444 Climbing FlightAware ADS-B
Thu 10:03:36 AM 38.4240 -81.8150 292° West 102 117 3,700 556 Climbing FlightAware ADS-B
Thu 10:04:04 AM 38.4280 -81.8310 288° West 104 120 4,000 517 Climbing FlightAware ADS-B
Thu 10:04:34 AM 38.4330 -81.8490 290° West 108 124 4,200 207 Climbing FlightAware ADS-B
Thu 10:05:02 AM 38.4380 -81.8660 291° West 118 136 4,200 111 Level FlightAware ADS-B
Thu 10:05:28 AM 38.4430 -81.8830 291° West 123 142 4,300 111 Climbing FlightAware ADS-B
Thu 10:05:56 AM 38.4490 -81.9030 291° West 126 145 4,300  Level FlightAware ADS-B
Thu 10:06:24 AM 38.4550 -81.9230 291° West 127 146 4,300  Level FlightAware ADS-B
Thu 10:06:52 AM 38.4610 -81.9430 291° West 129 148 4,300  Level FlightAware ADS-B
Thu 10:07:09 AM 38.4630 -81.9520 286° West 129 148 4,300  Level FlightAware ADS-B
Thu 10:07:36 AM 38.4700 -81.9750 291° West 130 150 4,300 -107 Level FlightAware ADS-B
Thu 10:08:05 AM 38.4760 -81.9950 291° West 132 152 4,200  Descending FlightAware ADS-B
Thu 10:08:32 AM 38.4820 -82.0160 290° West 130 150 4,300 62 Climbing FlightAware ADS-B
Thu 10:09:42 AM 38.4950 -82.0660 288° West 130 150 4,300  Level FlightAware ADS-B
Thu 10:10:10 AM 38.5000 -82.0830 291° West 130 150 4,300  Level FlightAware ADS-B
Thu 10:10:35 AM 38.5060 -82.1040 290° West 128 147 4,300 128 Level FlightAware ADS-B
Thu 10:11:44 AM 38.5181 -82.1453 290° West 128 147 4,500 92 Climbing Indianapolis Center
Thu 10:12:46 AM 38.5303 -82.1886 290° West 128 147 4,500  Level Indianapolis Center
Thu 10:13:48 AM 38.5419 -82.2306 290° West 127 146 4,500  Level Indianapolis Center
Thu 10:14:51 AM 38.5567 -82.2817 290° West 127 146 4,500  Level Indianapolis Center
Thu 10:15:53 AM 38.5681 -82.3236 289° West 126 145 4,500  Level Indianapolis Center
Thu 10:16:55 AM 38.5803 -82.3669 290° West 128 147 4,500  Level Indianapolis Center
Thu 10:17:57 AM 38.5928 -82.4103 290° West 129 148 4,500  Level Indianapolis Center
Thu 10:18:59 AM 38.6047 -82.4531 290° West 129 148 4,500  Level Indianapolis Center
Thu 10:20:01 AM 38.6178 -82.4989 290° West 126 145 4,500  Level Indianapolis Center
Thu 10:21:03 AM 38.6292 -82.5436 288° West 131 151 4,500  Level Indianapolis Center
Thu 10:22:05 AM 38.6419 -82.5853 291° West 128 147 4,500  Level Indianapolis Center
Thu 10:23:07 AM 38.6544 -82.6331 289° West 126 145 4,500  Level Indianapolis Center
Thu 10:24:09 AM 38.6667 -82.6767 290° West 128 147 4,500  Level Indianapolis Center
Thu 10:25:11 AM 38.6789 -82.7200 290° West 130 150 4,500  Level Indianapolis Center
Thu 10:26:13 AM 38.6972 -82.7597 301° West 130 150 4,500  Level Indianapolis Center
Thu 10:27:15 AM 38.7081 -82.8025 288° West 128 147 4,500  Level Indianapolis Center
Thu 10:28:17 AM 38.7225 -82.8556 289° West 130 150 4,500  Level Indianapolis Center
Thu 10:29:19 AM 38.7350 -82.8994 290° West 131 151 4,500  Level Indianapolis Center
Thu 10:30:21 AM 38.7458 -82.9431 288° West 130 150 4,500  Level Indianapolis Center
Thu 10:31:23 AM 38.7578 -82.9853 290° West 126 145 4,500  Level Indianapolis Center
Thu 10:32:25 AM 38.7703 -83.0292 290° West 130 150 4,500  Level Indianapolis Center
Thu 10:33:27 AM 38.7808 -83.0733 287° West 129 148 4,500  Level Indianapolis Center
Thu 10:34:29 AM 38.7958 -83.1261 290° West 132 152 4,500  Level Indianapolis Center
Thu 10:35:31 AM 38.8072 -83.1686 289° West 130 150 4,500  Level Indianapolis Center
Thu 10:36:33 AM 38.8183 -83.2133 288° West 129 148 4,500  Level Indianapolis Center
Thu 10:37:34 AM 38.8308 -83.2564 290° West 128 147 4,500  Level Indianapolis Center
Thu 10:38:36 AM 38.8411 -83.2989 287° West 125 144 4,500  Level Indianapolis Center
Thu 10:39:38 AM 38.8536 -83.3419 290° West 126 145 4,500  Level Indianapolis Center
Thu 10:40:40 AM 38.8650 -83.3853 289° West 128 147 4,500  Level Indianapolis Center
Thu 10:41:42 AM 38.8758 -83.4294 288° West 129 148 4,500  Level Indianapolis Center
Thu 10:42:44 AM 38.8889 -83.4794 289° West 127 146 4,500 -48 Level Indianapolis Center
Thu 10:43:46 AM 38.9008 -83.5222 290° West 126 145 4,400 -49 Descending Indianapolis Center
Thu 10:44:47 AM 38.9117 -83.5653 288° West 127 146 4,400  Level Indianapolis Center
Thu 10:45:49 AM 38.9233 -83.6097 289° West 131 151 4,400  Level Indianapolis Center
Thu 10:46:51 AM 38.9336 -83.6519 287° West 130 150 4,400  Level Indianapolis Center
Thu 10:47:52 AM 38.9453 -83.6942 290° West 126 145 4,400  Level Indianapolis Center
Thu 10:48:54 AM 38.9564 -83.7378 288° West 127 146 4,400  Level Indianapolis Center
Thu 10:49:56 AM 38.9672 -83.7800 288° West 124 143 4,400  Level Indianapolis Center
Thu 10:50:57 AM 38.9792 -83.8244 289° West 127 146 4,400  Level Indianapolis Center
Thu 10:51:59 AM 38.9894 -83.8664 288° West 124 143 4,400 -48 Level Indianapolis Center
Thu 10:53:01 AM 39.0025 -83.9147 289° West 122 140 4,300 -244 Descending Indianapolis Center
Thu 10:54:02 AM 39.0142 -83.9606 288° West 127 146 3,900 -439 Descending Indianapolis Center
Thu 10:55:04 AM 39.0264 -84.0075 289° West 132 152 3,400 -244 Descending Indianapolis Center
Thu 10:56:05 AM 39.0367 -84.0486 288° West 132 152 3,400  Level Indianapolis Center

Login

Don't have an account? Register now (free) for customized features, flight alerts, and more!